sensor_id;sensor_type;location;lat;lon;timestamp;pressure;altitude;pressure_sealevel;temperature;humidity
60417;BME280;46263;44.726;10.396;2023-02-12T00:00:06;102142.75;;;7.17;39.87
60417;BME280;46263;44.726;10.396;2023-02-12T00:02:32;102140.53;;;7.12;39.86
60417;BME280;46263;44.726;10.396;2023-02-12T00:04:58;102134.06;;;7.15;39.73
60417;BME280;46263;44.726;10.396;2023-02-12T00:07:23;102138.75;;;7.18;39.77
60417;BME280;46263;44.726;10.396;2023-02-12T00:09:49;102134.69;;;7.19;39.19
60417;BME280;46263;44.726;10.396;2023-02-12T00:12:15;102134.25;;;7.21;39.12
60417;BME280;46263;44.726;10.396;2023-02-12T00:14:41;102136.44;;;7.26;39.58
60417;BME280;46263;44.726;10.396;2023-02-12T00:17:06;102125.31;;;7.26;39.09
60417;BME280;46263;44.726;10.396;2023-02-12T00:19:32;102130.25;;;7.22;39.38
60417;BME280;46263;44.726;10.396;2023-02-12T00:21:57;102130.34;;;7.10;39.85
60417;BME280;46263;44.726;10.396;2023-02-12T00:24:23;102126.44;;;6.98;39.63
60417;BME280;46263;44.726;10.396;2023-02-12T00:26:49;102127.38;;;7.04;39.67
60417;BME280;46263;44.726;10.396;2023-02-12T00:29:15;102127.19;;;6.99;39.81
60417;BME280;46263;44.726;10.396;2023-02-12T00:31:40;102137.66;;;6.95;40.10
60417;BME280;46263;44.726;10.396;2023-02-12T00:34:06;102137.03;;;6.91;40.12
60417;BME280;46263;44.726;10.396;2023-02-12T00:36:34;102147.00;;;6.79;40.63
60417;BME280;46263;44.726;10.396;2023-02-12T00:39:00;102145.50;;;6.66;40.60
60417;BME280;46263;44.726;10.396;2023-02-12T00:41:25;102130.13;;;6.52;40.93
60417;BME280;46263;44.726;10.396;2023-02-12T00:43:52;102127.00;;;6.41;41.14
60417;BME280;46263;44.726;10.396;2023-02-12T00:46:18;102125.81;;;6.51;40.99
60417;BME280;46263;44.726;10.396;2023-02-12T00:48:43;102134.13;;;6.51;41.57
60417;BME280;46263;44.726;10.396;2023-02-12T00:51:09;102129.44;;;6.61;41.29
60417;BME280;46263;44.726;10.396;2023-02-12T00:53:35;102129.38;;;6.52;41.33
60417;BME280;46263;44.726;10.396;2023-02-12T00:56:01;102131.88;;;6.59;41.06
60417;BME280;46263;44.726;10.396;2023-02-12T00:58:28;102128.66;;;6.60;41.46
60417;BME280;46263;44.726;10.396;2023-02-12T01:00:53;102136.91;;;6.51;41.58
60417;BME280;46263;44.726;10.396;2023-02-12T01:03:19;102132.66;;;6.38;41.66
60417;BME280;46263;44.726;10.396;2023-02-12T01:05:45;102131.78;;;6.29;41.91
60417;BME280;46263;44.726;10.396;2023-02-12T01:08:13;102140.75;;;6.11;42.12
60417;BME280;46263;44.726;10.396;2023-02-12T01:10:40;102140.34;;;6.34;41.61
60417;BME280;46263;44.726;10.396;2023-02-12T01:13:06;102139.75;;;6.39;41.37
60417;BME280;46263;44.726;10.396;2023-02-12T01:15:31;102140.81;;;6.54;41.35
60417;BME280;46263;44.726;10.396;2023-02-12T01:17:57;102141.84;;;6.47;41.50
60417;BME280;46263;44.726;10.396;2023-02-12T01:20:23;102141.56;;;6.54;41.20
60417;BME280;46263;44.726;10.396;2023-02-12T01:22:50;102138.44;;;6.31;41.78
60417;BME280;46263;44.726;10.396;2023-02-12T01:25:16;102146.31;;;6.11;42.20
60417;BME280;46263;44.726;10.396;2023-02-12T01:27:42;102142.94;;;6.16;42.27
60417;BME280;46263;44.726;10.396;2023-02-12T01:30:10;102141.28;;;6.19;42.15
60417;BME280;46263;44.726;10.396;2023-02-12T01:32:36;102135.03;;;6.27;42.44
60417;BME280;46263;44.726;10.396;2023-02-12T01:35:03;102134.66;;;6.37;41.62
60417;BME280;46263;44.726;10.396;2023-02-12T01:37:28;102134.69;;;6.25;42.15
60417;BME280;46263;44.726;10.396;2023-02-12T01:39:54;102144.50;;;6.17;42.58
60417;BME280;46263;44.726;10.396;2023-02-12T01:42:19;102141.81;;;6.26;41.99
60417;BME280;46263;44.726;10.396;2023-02-12T01:47:37;102149.25;;;6.29;42.15
60417;BME280;46263;44.726;10.396;2023-02-12T01:50:04;102137.88;;;6.36;41.79
60417;BME280;46263;44.726;10.396;2023-02-12T01:52:33;102126.97;;;6.20;41.62
60417;BME280;46263;44.726;10.396;2023-02-12T01:55:02;102131.63;;;6.11;41.65
60417;BME280;46263;44.726;10.396;2023-02-12T01:57:31;102127.34;;;6.10;42.00
60417;BME280;46263;44.726;10.396;2023-02-12T01:59:59;102118.13;;;6.00;41.92
60417;BME280;46263;44.726;10.396;2023-02-12T02:02:26;102112.03;;;6.05;42.16
60417;BME280;46263;44.726;10.396;2023-02-12T02:04:59;102102.97;;;5.92;42.41
60417;BME280;46263;44.726;10.396;2023-02-12T02:07:26;102106.84;;;5.70;42.58
60417;BME280;46263;44.726;10.396;2023-02-12T02:09:51;102102.75;;;5.74;42.46
60417;BME280;46263;44.726;10.396;2023-02-12T02:12:17;102104.09;;;5.82;42.05
60417;BME280;46263;44.726;10.396;2023-02-12T02:15:02;102105.47;;;5.99;41.88
60417;BME280;46263;44.726;10.396;2023-02-12T02:31:07;102101.34;;;6.59;40.67
60417;BME280;46263;44.726;10.396;2023-02-12T02:33:52;102093.63;;;6.63;40.28
60417;BME280;46263;44.726;10.396;2023-02-12T02:36:26;102097.00;;;6.58;40.48
60417;BME280;46263;44.726;10.396;2023-02-12T02:41:44;102090.94;;;6.50;40.65
60417;BME280;46263;44.726;10.396;2023-02-12T02:44:21;102075.47;;;6.40;41.36
60417;BME280;46263;44.726;10.396;2023-02-12T02:46:50;102079.78;;;6.41;41.48
60417;BME280;46263;44.726;10.396;2023-02-12T02:49:28;102072.69;;;6.40;41.27
60417;BME280;46263;44.726;10.396;2023-02-12T02:52:06;102079.59;;;6.36;41.54
60417;BME280;46263;44.726;10.396;2023-02-12T02:54:38;102081.16;;;6.37;41.48
60417;BME280;46263;44.726;10.396;2023-02-12T02:57:11;102075.72;;;6.33;41.48
60417;BME280;46263;44.726;10.396;2023-02-12T02:59:43;102066.66;;;6.21;42.03
60417;BME280;46263;44.726;10.396;2023-02-12T03:02:32;102070.09;;;6.03;42.22
60417;BME280;46263;44.726;10.396;2023-02-12T03:05:08;102061.34;;;5.92;43.03
60417;BME280;46263;44.726;10.396;2023-02-12T03:07:49;102061.22;;;5.96;43.02
60417;BME280;46263;44.726;10.396;2023-02-12T03:10:28;102076.19;;;5.98;42.79
60417;BME280;46263;44.726;10.396;2023-02-12T03:13:10;102083.16;;;6.03;43.23
60417;BME280;46263;44.726;10.396;2023-02-12T03:18:22;102068.53;;;6.02;43.40
60417;BME280;46263;44.726;10.396;2023-02-12T03:21:02;102062.53;;;6.04;42.98
60417;BME280;46263;44.726;10.396;2023-02-12T03:23:55;102062.38;;;6.07;42.55
60417;BME280;46263;44.726;10.396;2023-02-12T03:26:21;102063.19;;;6.08;42.89
60417;BME280;46263;44.726;10.396;2023-02-12T03:28:49;102062.84;;;6.06;42.17
60417;BME280;46263;44.726;10.396;2023-02-12T03:42:08;102059.19;;;6.09;41.62
60417;BME280;46263;44.726;10.396;2023-02-12T03:49:45;102049.09;;;6.02;42.10
60417;BME280;46263;44.726;10.396;2023-02-12T03:52:15;102046.66;;;6.04;41.79
60417;BME280;46263;44.726;10.396;2023-02-12T03:54:40;102054.47;;;6.18;41.73
60417;BME280;46263;44.726;10.396;2023-02-12T03:57:09;102052.25;;;5.92;42.34
60417;BME280;46263;44.726;10.396;2023-02-12T03:59:37;102054.06;;;5.73;42.28
60417;BME280;46263;44.726;10.396;2023-02-12T04:02:04;102048.63;;;5.82;42.30
60417;BME280;46263;44.726;10.396;2023-02-12T04:04:30;102050.63;;;5.82;42.60
60417;BME280;46263;44.726;10.396;2023-02-12T04:06:56;102050.78;;;6.00;42.38
60417;BME280;46263;44.726;10.396;2023-02-12T04:09:23;102048.44;;;5.98;42.06
60417;BME280;46263;44.726;10.396;2023-02-12T04:14:55;102040.75;;;5.81;42.93
60417;BME280;46263;44.726;10.396;2023-02-12T04:17:37;102056.59;;;5.93;42.54
60417;BME280;46263;44.726;10.396;2023-02-12T04:36:37;102037.56;;;5.57;43.27
60417;BME280;46263;44.726;10.396;2023-02-12T04:39:09;102042.66;;;5.71;43.23
60417;BME280;46263;44.726;10.396;2023-02-12T04:41:37;102046.44;;;5.77;42.99
60417;BME280;46263;44.726;10.396;2023-02-12T04:46:42;102031.22;;;5.82;42.67
60417;BME280;46263;44.726;10.396;2023-02-12T04:49:14;102038.41;;;5.92;42.44
60417;BME280;46263;44.726;10.396;2023-02-12T04:51:40;102037.34;;;5.98;42.63
60417;BME280;46263;44.726;10.396;2023-02-12T04:54:05;102046.34;;;6.02;42.88
60417;BME280;46263;44.726;10.396;2023-02-12T04:56:31;102045.25;;;6.00;42.88
60417;BME280;46263;44.726;10.396;2023-02-12T04:58:57;102038.06;;;5.90;42.55
60417;BME280;46263;44.726;10.396;2023-02-12T05:01:23;102046.63;;;5.83;42.62
60417;BME280;46263;44.726;10.396;2023-02-12T05:03:50;102033.53;;;5.83;42.14
60417;BME280;46263;44.726;10.396;2023-02-12T05:06:16;102044.38;;;5.90;42.43
60417;BME280;46263;44.726;10.396;2023-02-12T05:08:42;102035.66;;;5.79;42.73
60417;BME280;46263;44.726;10.396;2023-02-12T05:11:09;102045.41;;;5.71;42.40
60417;BME280;46263;44.726;10.396;2023-02-12T05:13:35;102044.31;;;5.81;41.93
60417;BME280;46263;44.726;10.396;2023-02-12T05:16:05;102045.28;;;5.87;42.15
60417;BME280;46263;44.726;10.396;2023-02-12T05:18:31;102044.56;;;5.96;42.01
60417;BME280;46263;44.726;10.396;2023-02-12T05:20:59;102044.06;;;5.88;41.96
60417;BME280;46263;44.726;10.396;2023-02-12T05:23:26;102056.59;;;5.93;41.82
60417;BME280;46263;44.726;10.396;2023-02-12T05:25:52;102043.41;;;5.84;42.02
60417;BME280;46263;44.726;10.396;2023-02-12T05:28:18;102039.81;;;5.96;41.98
60417;BME280;46263;44.726;10.396;2023-02-12T05:30:44;102041.22;;;5.79;42.47
60417;BME280;46263;44.726;10.396;2023-02-12T05:33:09;102046.50;;;5.86;41.83
60417;BME280;46263;44.726;10.396;2023-02-12T05:35:35;102049.38;;;5.95;42.13
60417;BME280;46263;44.726;10.396;2023-02-12T05:38:01;102052.22;;;6.04;42.25
60417;BME280;46263;44.726;10.396;2023-02-12T05:40:26;102050.84;;;5.87;42.28
60417;BME280;46263;44.726;10.396;2023-02-12T05:42:52;102042.31;;;5.69;42.65
60417;BME280;46263;44.726;10.396;2023-02-12T05:45:17;102046.06;;;5.75;42.51
60417;BME280;46263;44.726;10.396;2023-02-12T05:47:43;102046.72;;;5.92;42.56
60417;BME280;46263;44.726;10.396;2023-02-12T05:50:09;102046.84;;;5.88;42.56
60417;BME280;46263;44.726;10.396;2023-02-12T05:52:34;102032.97;;;5.88;42.17
60417;BME280;46263;44.726;10.396;2023-02-12T05:55:00;102039.81;;;5.96;42.06
60417;BME280;46263;44.726;10.396;2023-02-12T05:57:26;102042.19;;;5.85;42.67
60417;BME280;46263;44.726;10.396;2023-02-12T05:59:51;102041.47;;;5.94;42.55
60417;BME280;46263;44.726;10.396;2023-02-12T06:02:17;102045.63;;;5.89;42.74
60417;BME280;46263;44.726;10.396;2023-02-12T06:04:42;102039.94;;;5.93;42.83
60417;BME280;46263;44.726;10.396;2023-02-12T06:07:08;102033.31;;;5.65;42.76
60417;BME280;46263;44.726;10.396;2023-02-12T06:09:34;102025.94;;;5.62;42.82
60417;BME280;46263;44.726;10.396;2023-02-12T06:12:00;102041.25;;;5.54;42.78
60417;BME280;46263;44.726;10.396;2023-02-12T06:14:25;102045.00;;;5.60;42.82
60417;BME280;46263;44.726;10.396;2023-02-12T06:16:51;102033.41;;;5.74;42.86
60417;BME280;46263;44.726;10.396;2023-02-12T06:19:18;102037.22;;;5.80;42.63
60417;BME280;46263;44.726;10.396;2023-02-12T06:21:43;102028.97;;;5.89;42.49
60417;BME280;46263;44.726;10.396;2023-02-12T06:24:14;102023.47;;;5.77;42.78
60417;BME280;46263;44.726;10.396;2023-02-12T06:26:40;102032.91;;;5.79;41.71
60417;BME280;46263;44.726;10.396;2023-02-12T06:29:05;102038.69;;;5.94;42.19
60417;BME280;46263;44.726;10.396;2023-02-12T06:31:33;102049.22;;;5.99;41.96
60417;BME280;46263;44.726;10.396;2023-02-12T06:34:02;102044.31;;;5.81;42.46
60417;BME280;46263;44.726;10.396;2023-02-12T06:36:28;102044.88;;;5.76;41.87
60417;BME280;46263;44.726;10.396;2023-02-12T06:38:54;102053.59;;;5.87;42.07
60417;BME280;46263;44.726;10.396;2023-02-12T06:41:20;102049.75;;;5.85;42.24
60417;BME280;46263;44.726;10.396;2023-02-12T06:43:46;102063.09;;;5.99;42.10
60417;BME280;46263;44.726;10.396;2023-02-12T06:46:12;102053.75;;;6.05;41.81
60417;BME280;46263;44.726;10.396;2023-02-12T06:48:38;102056.59;;;6.14;41.90
60417;BME280;46263;44.726;10.396;2023-02-12T06:51:12;102061.91;;;6.21;41.70
60417;BME280;46263;44.726;10.396;2023-02-12T06:53:39;102077.00;;;6.20;42.61
60417;BME280;46263;44.726;10.396;2023-02-12T06:56:06;102083.78;;;6.19;43.11
60417;BME280;46263;44.726;10.396;2023-02-12T06:58:36;102074.28;;;6.08;42.33
60417;BME280;46263;44.726;10.396;2023-02-12T07:01:26;102073.09;;;5.96;42.53
60417;BME280;46263;44.726;10.396;2023-02-12T07:03:55;102078.97;;;5.98;42.46
60417;BME280;46263;44.726;10.396;2023-02-12T07:06:21;102086.81;;;6.12;42.49
60417;BME280;46263;44.726;10.396;2023-02-12T07:08:47;102085.88;;;6.15;41.83
60417;BME280;46263;44.726;10.396;2023-02-12T07:11:13;102082.28;;;6.27;42.04
60417;BME280;46263;44.726;10.396;2023-02-12T07:13:40;102085.13;;;6.36;41.73
60417;BME280;46263;44.726;10.396;2023-02-12T07:16:09;102085.63;;;6.43;41.89
60417;BME280;46263;44.726;10.396;2023-02-12T07:18:35;102089.84;;;6.48;41.81
60417;BME280;46263;44.726;10.396;2023-02-12T07:21:02;102093.63;;;6.63;41.69
60417;BME280;46263;44.726;10.396;2023-02-12T07:23:28;102100.19;;;6.69;42.10
60417;BME280;46263;44.726;10.396;2023-02-12T07:25:58;102104.03;;;6.71;42.28
60417;BME280;46263;44.726;10.396;2023-02-12T07:28:25;102103.44;;;6.76;43.49
60417;BME280;46263;44.726;10.396;2023-02-12T07:30:51;102109.78;;;6.77;43.23
60417;BME280;46263;44.726;10.396;2023-02-12T07:33:17;102111.06;;;6.85;42.75
60417;BME280;46263;44.726;10.396;2023-02-12T07:35:43;102106.78;;;6.93;42.97
60417;BME280;46263;44.726;10.396;2023-02-12T07:38:09;102111.41;;;6.96;43.17
60417;BME280;46263;44.726;10.396;2023-02-12T07:40:34;102119.50;;;7.03;43.14
60417;BME280;46263;44.726;10.396;2023-02-12T07:43:00;102114.72;;;7.03;43.35
60417;BME280;46263;44.726;10.396;2023-02-12T07:45:26;102116.44;;;7.10;43.30
60417;BME280;46263;44.726;10.396;2023-02-12T07:47:51;102102.72;;;7.15;42.42
60417;BME280;46263;44.726;10.396;2023-02-12T07:50:17;102110.47;;;7.20;42.94
60417;BME280;46263;44.726;10.396;2023-02-12T07:52:43;102111.59;;;7.31;42.28
60417;BME280;46263;44.726;10.396;2023-02-12T07:55:08;102121.69;;;7.38;42.37
60417;BME280;46263;44.726;10.396;2023-02-12T07:57:34;102123.09;;;7.42;42.07
60417;BME280;46263;44.726;10.396;2023-02-12T08:00:00;102118.13;;;7.46;41.84
60417;BME280;46263;44.726;10.396;2023-02-12T08:02:26;102116.16;;;7.56;41.70
60417;BME280;46263;44.726;10.396;2023-02-12T08:04:56;102119.75;;;7.65;42.17
60417;BME280;46263;44.726;10.396;2023-02-12T08:07:22;102127.81;;;7.72;40.94
60417;BME280;46263;44.726;10.396;2023-02-12T08:09:47;102121.94;;;7.79;41.94
60417;BME280;46263;44.726;10.396;2023-02-12T08:12:13;102119.78;;;7.83;41.82
60417;BME280;46263;44.726;10.396;2023-02-12T08:14:39;102121.97;;;7.88;42.07
60417;BME280;46263;44.726;10.396;2023-02-12T08:17:05;102123.19;;;7.96;42.07
60417;BME280;46263;44.726;10.396;2023-02-12T08:19:30;102139.59;;;8.03;43.27
60417;BME280;46263;44.726;10.396;2023-02-12T08:21:56;102138.53;;;8.09;42.38
60417;BME280;46263;44.726;10.396;2023-02-12T08:24:23;102142.72;;;8.14;43.23
60417;BME280;46263;44.726;10.396;2023-02-12T08:26:49;102137.34;;;8.19;42.64
60417;BME280;46263;44.726;10.396;2023-02-12T08:29:27;102145.38;;;8.26;43.12
60417;BME280;46263;44.726;10.396;2023-02-12T08:32:03;102152.66;;;8.33;43.85
60417;BME280;46263;44.726;10.396;2023-02-12T08:34:34;102149.56;;;8.31;42.72
60417;BME280;46263;44.726;10.396;2023-02-12T08:37:00;102153.59;;;8.39;42.26
60417;BME280;46263;44.726;10.396;2023-02-12T08:39:27;102161.63;;;8.46;42.06
60417;BME280;46263;44.726;10.396;2023-02-12T08:41:54;102173.69;;;8.52;41.58
60417;BME280;46263;44.726;10.396;2023-02-12T08:44:20;102176.16;;;8.59;42.40
60417;BME280;46263;44.726;10.396;2023-02-12T08:46:48;102174.63;;;8.67;42.15
60417;BME280;46263;44.726;10.396;2023-02-12T08:49:17;102186.56;;;8.76;42.70
60417;BME280;46263;44.726;10.396;2023-02-12T08:51:46;102191.97;;;8.79;42.33
60417;BME280;46263;44.726;10.396;2023-02-12T08:54:15;102196.44;;;8.86;41.49
60417;BME280;46263;44.726;10.396;2023-02-12T08:56:41;102213.63;;;8.84;41.45
60417;BME280;46263;44.726;10.396;2023-02-12T08:59:11;102209.75;;;8.91;41.53
60417;BME280;46263;44.726;10.396;2023-02-12T09:01:37;102211.00;;;8.99;41.36
60417;BME280;46263;44.726;10.396;2023-02-12T09:04:04;102209.88;;;9.05;41.33
60417;BME280;46263;44.726;10.396;2023-02-12T09:06:33;102220.44;;;9.10;41.76
60417;BME280;46263;44.726;10.396;2023-02-12T09:08:59;102213.28;;;9.18;41.43
60417;BME280;46263;44.726;10.396;2023-02-12T09:11:26;102211.72;;;9.26;40.34
60417;BME280;46263;44.726;10.396;2023-02-12T09:14:06;102219.91;;;9.30;39.77
60417;BME280;46263;44.726;10.396;2023-02-12T09:16:33;102216.31;;;9.38;40.11
60417;BME280;46263;44.726;10.396;2023-02-12T09:19:00;102223.75;;;9.41;40.23
60417;BME280;46263;44.726;10.396;2023-02-12T09:21:26;102226.38;;;9.45;40.54
60417;BME280;46263;44.726;10.396;2023-02-12T09:23:52;102229.31;;;9.50;40.95
60417;BME280;46263;44.726;10.396;2023-02-12T09:26:20;102236.09;;;9.58;40.93
60417;BME280;46263;44.726;10.396;2023-02-12T09:28:46;102239.81;;;9.64;40.89
60417;BME280;46263;44.726;10.396;2023-02-12T09:31:15;102230.19;;;9.65;41.07
60417;BME280;46263;44.726;10.396;2023-02-12T09:33:42;102235.44;;;9.72;41.98
60417;BME280;46263;44.726;10.396;2023-02-12T09:36:10;102246.88;;;9.83;41.56
60417;BME280;46263;44.726;10.396;2023-02-12T09:38:36;102230.34;;;9.94;41.33
60417;BME280;46263;44.726;10.396;2023-02-12T09:46:15;102225.84;;;10.05;41.33
60417;BME280;46263;44.726;10.396;2023-02-12T09:49:12;102231.84;;;10.13;41.45
60417;BME280;46263;44.726;10.396;2023-02-12T09:51:49;102236.63;;;10.21;41.44
60417;BME280;46263;44.726;10.396;2023-02-12T09:54:21;102237.34;;;10.31;41.45
60417;BME280;46263;44.726;10.396;2023-02-12T09:56:54;102236.03;;;10.40;42.11
60417;BME280;46263;44.726;10.396;2023-02-12T09:59:39;102241.63;;;10.40;41.74
60417;BME280;46263;44.726;10.396;2023-02-12T10:02:12;102242.44;;;10.55;41.49
60417;BME280;46263;44.726;10.396;2023-02-12T10:04:38;102235.81;;;10.67;41.21
60417;BME280;46263;44.726;10.396;2023-02-12T10:12:49;102234.63;;;10.83;41.14
60417;BME280;46263;44.726;10.396;2023-02-12T10:15:34;102233.84;;;10.82;41.11
60417;BME280;46263;44.726;10.396;2023-02-12T10:23:42;102223.94;;;11.10;40.50
60417;BME280;46263;44.726;10.396;2023-02-12T10:26:21;102221.06;;;11.19;40.55
60417;BME280;46263;44.726;10.396;2023-02-12T10:28:50;102218.16;;;11.28;40.35
60417;BME280;46263;44.726;10.396;2023-02-12T10:31:37;102215.94;;;11.32;39.55
60417;BME280;46263;44.726;10.396;2023-02-12T10:34:18;102211.28;;;11.43;39.32
60417;BME280;46263;44.726;10.396;2023-02-12T10:36:47;102213.94;;;11.47;38.71
60417;BME280;46263;44.726;10.396;2023-02-12T10:39:22;102206.41;;;11.53;38.79
60417;BME280;46263;44.726;10.396;2023-02-12T10:44:36;102207.66;;;11.66;38.93
60417;BME280;46263;44.726;10.396;2023-02-12T10:47:01;102200.84;;;11.73;39.04
60417;BME280;46263;44.726;10.396;2023-02-12T10:49:30;102197.94;;;11.82;38.88
60417;BME280;46263;44.726;10.396;2023-02-12T10:52:24;102197.75;;;11.85;38.13
60417;BME280;46263;44.726;10.396;2023-02-12T10:54:52;102201.41;;;11.91;37.52
60417;BME280;46263;44.726;10.396;2023-02-12T10:57:30;102190.25;;;11.96;37.34
60417;BME280;46263;44.726;10.396;2023-02-12T11:05:35;102171.88;;;12.30;37.37
60417;BME280;46263;44.726;10.396;2023-02-12T11:08:02;102178.75;;;12.29;36.55
60417;BME280;46263;44.726;10.396;2023-02-12T11:10:38;102177.00;;;12.31;37.20
60417;BME280;46263;44.726;10.396;2023-02-12T11:13:06;102169.41;;;12.37;37.43
60417;BME280;46263;44.726;10.396;2023-02-12T11:15:47;102170.09;;;12.52;38.14
60417;BME280;46263;44.726;10.396;2023-02-12T11:18:25;102175.56;;;12.61;38.49
60417;BME280;46263;44.726;10.396;2023-02-12T11:21:11;102163.72;;;12.72;37.77
60417;BME280;46263;44.726;10.396;2023-02-12T11:23:38;102163.75;;;12.77;37.63
60417;BME280;46263;44.726;10.396;2023-02-12T11:31:25;102159.53;;;12.87;37.67
60417;BME280;46263;44.726;10.396;2023-02-12T11:36:36;102155.47;;;13.13;39.11
60417;BME280;46263;44.726;10.396;2023-02-12T11:39:03;102141.81;;;13.26;39.20
60417;BME280;46263;44.726;10.396;2023-02-12T11:41:38;102147.78;;;13.39;38.83
60417;BME280;46263;44.726;10.396;2023-02-12T11:46:52;102138.38;;;13.42;37.51
60417;BME280;46263;44.726;10.396;2023-02-12T11:49:30;102139.66;;;13.47;37.35
60417;BME280;46263;44.726;10.396;2023-02-12T11:51:59;102138.13;;;13.46;37.75
60417;BME280;46263;44.726;10.396;2023-02-12T11:54:28;102143.28;;;13.52;37.15
60417;BME280;46263;44.726;10.396;2023-02-12T11:56:55;102137.97;;;13.60;38.22
60417;BME280;46263;44.726;10.396;2023-02-12T12:01:53;102139.34;;;13.75;36.52
60417;BME280;46263;44.726;10.396;2023-02-12T12:04:22;102131.19;;;13.77;37.36
60417;BME280;46263;44.726;10.396;2023-02-12T12:06:58;102130.19;;;13.80;36.85
60417;BME280;46263;44.726;10.396;2023-02-12T12:09:36;102133.81;;;13.86;37.33
60417;BME280;46263;44.726;10.396;2023-02-12T12:14:49;102142.50;;;13.94;36.75
60417;BME280;46263;44.726;10.396;2023-02-12T12:17:53;102140.31;;;14.09;37.71
60417;BME280;46263;44.726;10.396;2023-02-12T12:20:51;102144.19;;;14.11;36.69
60417;BME280;46263;44.726;10.396;2023-02-12T12:23:24;102138.31;;;14.15;36.96
60417;BME280;46263;44.726;10.396;2023-02-12T12:25:57;102135.00;;;14.16;37.10
60417;BME280;46263;44.726;10.396;2023-02-12T12:28:49;102136.03;;;14.19;36.55
60417;BME280;46263;44.726;10.396;2023-02-12T12:31:42;102135.53;;;14.20;37.25
60417;BME280;46263;44.726;10.396;2023-02-12T12:34:14;102131.69;;;14.23;37.24
60417;BME280;46263;44.726;10.396;2023-02-12T12:37:04;102133.25;;;14.24;37.40
60417;BME280;46263;44.726;10.396;2023-02-12T13:04:54;102128.00;;;14.75;36.58
60417;BME280;46263;44.726;10.396;2023-02-12T13:10:14;102135.44;;;14.78;35.85
60417;BME280;46263;44.726;10.396;2023-02-12T13:23:15;102143.13;;;14.72;34.20
60417;BME280;46263;44.726;10.396;2023-02-12T13:26:21;102148.50;;;14.76;34.40
60417;BME280;46263;44.726;10.396;2023-02-12T13:28:52;102146.44;;;14.71;34.14
60417;BME280;46263;44.726;10.396;2023-02-12T13:31:22;102141.31;;;14.69;33.74
60417;BME280;46263;44.726;10.396;2023-02-12T13:33:55;102152.06;;;14.71;33.42
60417;BME280;46263;44.726;10.396;2023-02-12T13:36:22;102147.72;;;14.70;33.81
60417;BME280;46263;44.726;10.396;2023-02-12T13:38:57;102139.50;;;14.66;33.39
60417;BME280;46263;44.726;10.396;2023-02-12T13:41:26;102143.09;;;14.61;33.12
60417;BME280;46263;44.726;10.396;2023-02-12T13:44:00;102147.44;;;14.57;33.33
60417;BME280;46263;44.726;10.396;2023-02-12T13:47:28;102140.25;;;14.56;33.74
60417;BME280;46263;44.726;10.396;2023-02-12T13:49:44;102141.28;;;14.53;33.08
60417;BME280;46263;44.726;10.396;2023-02-12T13:55:22;102153.75;;;14.41;32.01
60417;BME280;46263;44.726;10.396;2023-02-12T14:03:25;102148.09;;;14.25;32.42
60417;BME280;46263;44.726;10.396;2023-02-12T14:06:14;102150.31;;;14.15;32.32
60417;BME280;46263;44.726;10.396;2023-02-12T14:08:46;102149.81;;;14.11;32.20
60417;BME280;46263;44.726;10.396;2023-02-12T14:11:20;102147.44;;;14.04;33.29
60417;BME280;46263;44.726;10.396;2023-02-12T14:13:55;102149.44;;;13.98;32.58
60417;BME280;46263;44.726;10.396;2023-02-12T14:21:57;102147.09;;;13.91;32.88
60417;BME280;46263;44.726;10.396;2023-02-12T14:24:46;102134.81;;;13.89;32.90
60417;BME280;46263;44.726;10.396;2023-02-12T14:27:25;102134.06;;;13.88;31.76
60417;BME280;46263;44.726;10.396;2023-02-12T14:37:55;102141.69;;;13.82;33.64
60417;BME280;46263;44.726;10.396;2023-02-12T14:43:00;102145.72;;;13.70;32.84
60417;BME280;46263;44.726;10.396;2023-02-12T14:45:35;102144.44;;;13.71;33.38
60417;BME280;46263;44.726;10.396;2023-02-12T14:48:03;102150.06;;;13.71;33.66
60417;BME280;46263;44.726;10.396;2023-02-12T14:50:42;102150.59;;;13.75;34.20
60417;BME280;46263;44.726;10.396;2023-02-12T14:53:25;102152.59;;;13.69;33.87
60417;BME280;46263;44.726;10.396;2023-02-12T14:55:54;102152.88;;;13.71;34.66
60417;BME280;46263;44.726;10.396;2023-02-12T14:58:23;102162.84;;;13.72;34.32
60417;BME280;46263;44.726;10.396;2023-02-12T15:00:52;102158.50;;;13.71;33.72
60417;BME280;46263;44.726;10.396;2023-02-12T15:03:31;102157.97;;;13.73;33.81
60417;BME280;46263;44.726;10.396;2023-02-12T15:06:22;102162.84;;;13.72;34.43
60417;BME280;46263;44.726;10.396;2023-02-12T15:14:05;102165.06;;;13.63;33.69
60417;BME280;46263;44.726;10.396;2023-02-12T15:24:40;102159.41;;;13.57;34.35
60417;BME280;46263;44.726;10.396;2023-02-12T15:27:06;102163.50;;;13.56;33.68
60417;BME280;46263;44.726;10.396;2023-02-12T15:29:43;102163.22;;;13.54;33.16
60417;BME280;46263;44.726;10.396;2023-02-12T15:32:22;102160.69;;;13.56;33.86
60417;BME280;46263;44.726;10.396;2023-02-12T15:34:50;102162.72;;;13.56;33.76
60417;BME280;46263;44.726;10.396;2023-02-12T15:37:25;102165.00;;;13.57;34.29
60417;BME280;46263;44.726;10.396;2023-02-12T15:39:54;102157.88;;;13.56;34.87
60417;BME280;46263;44.726;10.396;2023-02-12T15:42:35;102166.78;;;13.55;34.57
60417;BME280;46263;44.726;10.396;2023-02-12T15:47:41;102173.66;;;13.54;33.80
60417;BME280;46263;44.726;10.396;2023-02-12T15:50:15;102172.91;;;13.53;33.45
60417;BME280;46263;44.726;10.396;2023-02-12T15:52:43;102170.63;;;13.52;33.95
60417;BME280;46263;44.726;10.396;2023-02-12T15:55:27;102174.19;;;13.52;35.58
60417;BME280;46263;44.726;10.396;2023-02-12T15:57:57;102170.84;;;13.49;36.56
60417;BME280;46263;44.726;10.396;2023-02-12T16:00:28;102173.66;;;13.49;37.47
60417;BME280;46263;44.726;10.396;2023-02-12T16:02:54;102177.72;;;13.48;38.31